sensor_id;sensor_type;location;lat;lon;timestamp;temperature;humidity
29539;DHT22;16482;51.046;4.498;2023-08-08T00:00:59;24.40;46.70
29539;DHT22;16482;51.046;4.498;2023-08-08T00:03:25;24.40;46.70
29539;DHT22;16482;51.046;4.498;2023-08-08T00:05:56;24.40;46.80
29539;DHT22;16482;51.046;4.498;2023-08-08T00:08:24;24.40;46.70
29539;DHT22;16482;51.046;4.498;2023-08-08T00:10:50;24.40;46.70
29539;DHT22;16482;51.046;4.498;2023-08-08T00:13:27;24.40;46.80
29539;DHT22;16482;51.046;4.498;2023-08-08T00:15:55;24.40;46.80
29539;DHT22;16482;51.046;4.498;2023-08-08T00:18:34;24.40;46.90
29539;DHT22;16482;51.046;4.498;2023-08-08T00:21:00;24.40;46.80
29539;DHT22;16482;51.046;4.498;2023-08-08T00:23:26;24.40;46.90
29539;DHT22;16482;51.046;4.498;2023-08-08T00:25:55;24.40;46.90
29539;DHT22;16482;51.046;4.498;2023-08-08T00:28:21;24.30;46.90
29539;DHT22;16482;51.046;4.498;2023-08-08T00:30:57;24.40;47.00
29539;DHT22;16482;51.046;4.498;2023-08-08T00:33:26;24.40;46.90
29539;DHT22;16482;51.046;4.498;2023-08-08T00:35:52;24.40;46.80
29539;DHT22;16482;51.046;4.498;2023-08-08T00:38:25;24.40;46.80
29539;DHT22;16482;51.046;4.498;2023-08-08T00:40:59;24.40;46.90
29539;DHT22;16482;51.046;4.498;2023-08-08T00:43:27;24.40;46.90
29539;DHT22;16482;51.046;4.498;2023-08-08T00:45:57;24.30;46.80
29539;DHT22;16482;51.046;4.498;2023-08-08T00:48:27;24.30;46.80
29539;DHT22;16482;51.046;4.498;2023-08-08T00:50:56;24.30;46.80
29539;DHT22;16482;51.046;4.498;2023-08-08T00:53:27;24.40;46.80
29539;DHT22;16482;51.046;4.498;2023-08-08T00:55:56;24.40;46.80
29539;DHT22;16482;51.046;4.498;2023-08-08T00:58:24;24.30;46.80
29539;DHT22;16482;51.046;4.498;2023-08-08T01:00:50;24.30;46.80
29539;DHT22;16482;51.046;4.498;2023-08-08T01:03:25;24.30;46.90
29539;DHT22;16482;51.046;4.498;2023-08-08T01:06:03;24.40;46.80
29539;DHT22;16482;51.046;4.498;2023-08-08T01:08:48;24.30;46.80
29539;DHT22;16482;51.046;4.498;2023-08-08T01:11:17;24.40;46.90
29539;DHT22;16482;51.046;4.498;2023-08-08T01:13:43;24.30;46.90
29539;DHT22;16482;51.046;4.498;2023-08-08T01:16:12;24.30;46.90
29539;DHT22;16482;51.046;4.498;2023-08-08T01:18:39;24.30;46.90
29539;DHT22;16482;51.046;4.498;2023-08-08T01:21:07;24.30;46.90
29539;DHT22;16482;51.046;4.498;2023-08-08T01:24:16;24.30;46.90
29539;DHT22;16482;51.046;4.498;2023-08-08T01:26:52;24.30;46.80
29539;DHT22;16482;51.046;4.498;2023-08-08T01:29:20;24.30;47.10
29539;DHT22;16482;51.046;4.498;2023-08-08T01:31:47;24.30;47.10
29539;DHT22;16482;51.046;4.498;2023-08-08T01:34:15;24.30;47.20
29539;DHT22;16482;51.046;4.498;2023-08-08T01:36:46;24.30;47.20
29539;DHT22;16482;51.046;4.498;2023-08-08T01:39:17;24.30;47.10
29539;DHT22;16482;51.046;4.498;2023-08-08T01:41:47;24.20;47.00
29539;DHT22;16482;51.046;4.498;2023-08-08T01:44:14;24.30;47.40
29539;DHT22;16482;51.046;4.498;2023-08-08T01:46:41;24.30;47.20
29539;DHT22;16482;51.046;4.498;2023-08-08T01:49:19;24.30;47.30
29539;DHT22;16482;51.046;4.498;2023-08-08T01:51:45;24.30;47.30
29539;DHT22;16482;51.046;4.498;2023-08-08T01:54:16;24.30;47.30
29539;DHT22;16482;51.046;4.498;2023-08-08T01:56:47;24.30;47.30
29539;DHT22;16482;51.046;4.498;2023-08-08T01:59:20;24.30;47.40
29539;DHT22;16482;51.046;4.498;2023-08-08T02:01:54;24.30;47.40
29539;DHT22;16482;51.046;4.498;2023-08-08T02:04:22;24.30;47.40
29539;DHT22;16482;51.046;4.498;2023-08-08T02:06:48;24.30;47.50
29539;DHT22;16482;51.046;4.498;2023-08-08T02:09:15;24.30;48.00
29539;DHT22;16482;51.046;4.498;2023-08-08T02:11:46;24.30;47.50
29539;DHT22;16482;51.046;4.498;2023-08-08T02:14:15;24.30;47.40
29539;DHT22;16482;51.046;4.498;2023-08-08T02:16:51;24.30;47.40
29539;DHT22;16482;51.046;4.498;2023-08-08T02:19:17;24.30;47.50
29539;DHT22;16482;51.046;4.498;2023-08-08T02:21:45;24.30;47.50
29539;DHT22;16482;51.046;4.498;2023-08-08T02:24:16;24.30;47.50
29539;DHT22;16482;51.046;4.498;2023-08-08T02:26:45;24.40;47.60
29539;DHT22;16482;51.046;4.498;2023-08-08T02:29:13;24.30;47.50
29539;DHT22;16482;51.046;4.498;2023-08-08T02:31:39;24.30;47.60
29539;DHT22;16482;51.046;4.498;2023-08-08T02:34:07;24.30;47.60
29539;DHT22;16482;51.046;4.498;2023-08-08T02:36:33;24.30;47.60
29539;DHT22;16482;51.046;4.498;2023-08-08T02:39:08;24.30;47.60
29539;DHT22;16482;51.046;4.498;2023-08-08T02:41:40;24.30;47.70
29539;DHT22;16482;51.046;4.498;2023-08-08T02:44:08;24.30;47.70
29539;DHT22;16482;51.046;4.498;2023-08-08T02:46:34;24.30;47.60
29539;DHT22;16482;51.046;4.498;2023-08-08T02:49:09;24.30;47.70
29539;DHT22;16482;51.046;4.498;2023-08-08T02:51:45;24.30;47.70
29539;DHT22;16482;51.046;4.498;2023-08-08T02:54:19;24.30;47.70
29539;DHT22;16482;51.046;4.498;2023-08-08T02:56:45;24.30;47.70
29539;DHT22;16482;51.046;4.498;2023-08-08T02:59:11;24.30;47.70
29539;DHT22;16482;51.046;4.498;2023-08-08T03:01:49;24.30;47.70
29539;DHT22;16482;51.046;4.498;2023-08-08T03:04:21;24.30;47.70
29539;DHT22;16482;51.046;4.498;2023-08-08T03:06:46;24.30;47.70
29539;DHT22;16482;51.046;4.498;2023-08-08T03:09:22;24.30;47.70
29539;DHT22;16482;51.046;4.498;2023-08-08T03:11:50;24.30;47.70
29539;DHT22;16482;51.046;4.498;2023-08-08T03:14:18;24.30;47.70
29539;DHT22;16482;51.046;4.498;2023-08-08T03:16:47;24.30;47.60
29539;DHT22;16482;51.046;4.498;2023-08-08T03:19:16;24.30;47.80
29539;DHT22;16482;51.046;4.498;2023-08-08T03:21:47;24.30;47.80
29539;DHT22;16482;51.046;4.498;2023-08-08T03:24:16;24.30;47.70
29539;DHT22;16482;51.046;4.498;2023-08-08T03:26:44;24.30;47.70
29539;DHT22;16482;51.046;4.498;2023-08-08T03:29:16;24.30;48.30
29539;DHT22;16482;51.046;4.498;2023-08-08T03:31:45;24.30;47.70
29539;DHT22;16482;51.046;4.498;2023-08-08T03:34:15;24.30;47.70
29539;DHT22;16482;51.046;4.498;2023-08-08T03:36:58;24.30;47.80
29539;DHT22;16482;51.046;4.498;2023-08-08T03:39:26;24.30;47.70
29539;DHT22;16482;51.046;4.498;2023-08-08T03:41:52;24.30;47.80
29539;DHT22;16482;51.046;4.498;2023-08-08T03:44:21;24.20;47.90
29539;DHT22;16482;51.046;4.498;2023-08-08T03:46:47;24.30;47.90
29539;DHT22;16482;51.046;4.498;2023-08-08T03:49:16;24.30;47.90
29539;DHT22;16482;51.046;4.498;2023-08-08T03:51:45;24.30;47.80
29539;DHT22;16482;51.046;4.498;2023-08-08T03:54:13;24.20;47.80
29539;DHT22;16482;51.046;4.498;2023-08-08T03:56:39;24.30;47.80
29539;DHT22;16482;51.046;4.498;2023-08-08T03:59:08;24.30;47.80
29539;DHT22;16482;51.046;4.498;2023-08-08T04:01:37;24.30;47.90
29539;DHT22;16482;51.046;4.498;2023-08-08T04:04:04;24.30;47.90
29539;DHT22;16482;51.046;4.498;2023-08-08T04:06:32;24.30;47.80
29539;DHT22;16482;51.046;4.498;2023-08-08T04:08:58;24.30;47.90
29539;DHT22;16482;51.046;4.498;2023-08-08T04:11:27;24.30;47.80
29539;DHT22;16482;51.046;4.498;2023-08-08T04:13:53;24.30;47.80
29539;DHT22;16482;51.046;4.498;2023-08-08T04:16:22;24.30;47.80
29539;DHT22;16482;51.046;4.498;2023-08-08T04:18:50;24.30;47.90
29539;DHT22;16482;51.046;4.498;2023-08-08T04:21:16;24.30;47.80
29539;DHT22;16482;51.046;4.498;2023-08-08T04:23:51;24.30;47.90
29539;DHT22;16482;51.046;4.498;2023-08-08T04:26:17;24.20;47.90
29539;DHT22;16482;51.046;4.498;2023-08-08T04:28:43;24.30;48.00
29539;DHT22;16482;51.046;4.498;2023-08-08T04:31:09;24.30;47.90
29539;DHT22;16482;51.046;4.498;2023-08-08T04:33:35;24.30;48.00
29539;DHT22;16482;51.046;4.498;2023-08-08T04:36:04;24.30;48.00
29539;DHT22;16482;51.046;4.498;2023-08-08T04:38:30;24.30;47.90
29539;DHT22;16482;51.046;4.498;2023-08-08T04:40:56;24.30;48.00
29539;DHT22;16482;51.046;4.498;2023-08-08T04:43:25;24.30;48.00
29539;DHT22;16482;51.046;4.498;2023-08-08T04:45:56;24.30;48.00
29539;DHT22;16482;51.046;4.498;2023-08-08T04:48:31;24.30;48.00
29539;DHT22;16482;51.046;4.498;2023-08-08T04:50:58;24.30;48.00
29539;DHT22;16482;51.046;4.498;2023-08-08T04:53:26;24.30;48.00
29539;DHT22;16482;51.046;4.498;2023-08-08T04:55:57;24.20;47.90
29539;DHT22;16482;51.046;4.498;2023-08-08T04:58:26;24.30;48.00
29539;DHT22;16482;51.046;4.498;2023-08-08T05:00:52;24.20;47.90
29539;DHT22;16482;51.046;4.498;2023-08-08T05:03:21;24.30;48.00
29539;DHT22;16482;51.046;4.498;2023-08-08T05:05:50;24.30;48.00
29539;DHT22;16482;51.046;4.498;2023-08-08T05:08:16;24.20;47.90
29539;DHT22;16482;51.046;4.498;2023-08-08T05:10:45;24.20;47.90
29539;DHT22;16482;51.046;4.498;2023-08-08T05:13:21;24.30;48.00
29539;DHT22;16482;51.046;4.498;2023-08-08T05:15:57;24.20;48.00
29539;DHT22;16482;51.046;4.498;2023-08-08T05:18:26;24.20;48.00
29539;DHT22;16482;51.046;4.498;2023-08-08T05:20:55;24.20;48.00
29539;DHT22;16482;51.046;4.498;2023-08-08T05:23:27;24.30;48.00
29539;DHT22;16482;51.046;4.498;2023-08-08T05:25:53;24.20;48.10
29539;DHT22;16482;51.046;4.498;2023-08-08T05:28:29;24.30;48.10
29539;DHT22;16482;51.046;4.498;2023-08-08T05:30:55;24.30;48.20
29539;DHT22;16482;51.046;4.498;2023-08-08T05:33:25;24.20;48.10
29539;DHT22;16482;51.046;4.498;2023-08-08T05:35:58;24.20;48.10
29539;DHT22;16482;51.046;4.498;2023-08-08T05:38:26;24.30;48.10
29539;DHT22;16482;51.046;4.498;2023-08-08T05:40:52;24.20;48.10
29539;DHT22;16482;51.046;4.498;2023-08-08T05:43:18;24.20;48.20
29539;DHT22;16482;51.046;4.498;2023-08-08T05:45:56;24.20;48.30
29539;DHT22;16482;51.046;4.498;2023-08-08T05:48:29;24.20;48.30
29539;DHT22;16482;51.046;4.498;2023-08-08T05:50:55;24.20;48.30
29539;DHT22;16482;51.046;4.498;2023-08-08T05:53:29;24.30;48.30
29539;DHT22;16482;51.046;4.498;2023-08-08T05:55:58;24.20;48.30
29539;DHT22;16482;51.046;4.498;2023-08-08T05:58:26;24.20;48.40
29539;DHT22;16482;51.046;4.498;2023-08-08T06:00:54;24.30;48.50
29539;DHT22;16482;51.046;4.498;2023-08-08T06:03:20;24.20;48.40
29539;DHT22;16482;51.046;4.498;2023-08-08T06:05:56;24.20;48.40
29539;DHT22;16482;51.046;4.498;2023-08-08T06:08:25;24.20;48.50
29539;DHT22;16482;51.046;4.498;2023-08-08T06:10:53;24.20;48.50
29539;DHT22;16482;51.046;4.498;2023-08-08T06:13:19;24.20;48.50
29539;DHT22;16482;51.046;4.498;2023-08-08T06:15:57;24.20;48.60
29539;DHT22;16482;51.046;4.498;2023-08-08T06:18:23;24.20;48.50
29539;DHT22;16482;51.046;4.498;2023-08-08T06:20:49;24.30;48.60
29539;DHT22;16482;51.046;4.498;2023-08-08T06:23:25;24.30;48.60
29539;DHT22;16482;51.046;4.498;2023-08-08T06:25:51;24.20;48.70
29539;DHT22;16482;51.046;4.498;2023-08-08T06:28:27;24.20;48.70
29539;DHT22;16482;51.046;4.498;2023-08-08T06:30:56;24.20;48.70
29539;DHT22;16482;51.046;4.498;2023-08-08T06:33:25;24.20;48.70
29539;DHT22;16482;51.046;4.498;2023-08-08T06:35:54;24.20;48.70
29539;DHT22;16482;51.046;4.498;2023-08-08T06:38:20;24.20;48.70
29539;DHT22;16482;51.046;4.498;2023-08-08T06:40:46;24.20;48.70
29539;DHT22;16482;51.046;4.498;2023-08-08T06:43:13;24.20;48.80
29539;DHT22;16482;51.046;4.498;2023-08-08T06:45:39;24.20;48.80
29539;DHT22;16482;51.046;4.498;2023-08-08T06:48:05;24.20;48.90
29539;DHT22;16482;51.046;4.498;2023-08-08T06:50:31;24.30;48.80
29539;DHT22;16482;51.046;4.498;2023-08-08T06:52:57;24.30;48.70
29539;DHT22;16482;51.046;4.498;2023-08-08T06:55:23;24.40;48.50
29539;DHT22;16482;51.046;4.498;2023-08-08T06:57:52;24.50;48.40
29539;DHT22;16482;51.046;4.498;2023-08-08T07:00:18;24.60;48.10
29539;DHT22;16482;51.046;4.498;2023-08-08T07:02:44;24.70;48.00
29539;DHT22;16482;51.046;4.498;2023-08-08T07:05:10;24.70;48.00
29539;DHT22;16482;51.046;4.498;2023-08-08T07:07:42;24.70;48.10
29539;DHT22;16482;51.046;4.498;2023-08-08T07:10:08;24.70;48.00
29539;DHT22;16482;51.046;4.498;2023-08-08T07:12:39;24.70;48.10
29539;DHT22;16482;51.046;4.498;2023-08-08T07:15:08;24.70;48.10
29539;DHT22;16482;51.046;4.498;2023-08-08T07:17:40;24.70;48.10
29539;DHT22;16482;51.046;4.498;2023-08-08T07:20:06;24.70;48.20
29539;DHT22;16482;51.046;4.498;2023-08-08T07:22:39;24.60;48.10
29539;DHT22;16482;51.046;4.498;2023-08-08T07:25:07;24.60;48.30
29539;DHT22;16482;51.046;4.498;2023-08-08T07:27:37;24.70;48.20
29539;DHT22;16482;51.046;4.498;2023-08-08T07:30:05;24.60;48.20
29539;DHT22;16482;51.046;4.498;2023-08-08T07:32:35;24.70;48.30
29539;DHT22;16482;51.046;4.498;2023-08-08T07:35:01;24.70;49.00
29539;DHT22;16482;51.046;4.498;2023-08-08T07:37:38;24.60;48.40
29539;DHT22;16482;51.046;4.498;2023-08-08T07:40:14;24.60;48.40
29539;DHT22;16482;51.046;4.498;2023-08-08T07:42:40;24.60;48.40
29539;DHT22;16482;51.046;4.498;2023-08-08T07:45:07;24.50;48.50
29539;DHT22;16482;51.046;4.498;2023-08-08T07:47:35;24.60;48.50
29539;DHT22;16482;51.046;4.498;2023-08-08T07:50:11;24.60;48.50
29539;DHT22;16482;51.046;4.498;2023-08-08T07:52:38;24.60;48.50
29539;DHT22;16482;51.046;4.498;2023-08-08T07:55:13;24.60;48.70
29539;DHT22;16482;51.046;4.498;2023-08-08T07:57:48;24.60;48.60
29539;DHT22;16482;51.046;4.498;2023-08-08T08:00:17;24.60;48.70
29539;DHT22;16482;51.046;4.498;2023-08-08T08:02:45;24.60;48.70
29539;DHT22;16482;51.046;4.498;2023-08-08T08:05:11;24.60;48.70
29539;DHT22;16482;51.046;4.498;2023-08-08T08:07:38;24.60;48.70
29539;DHT22;16482;51.046;4.498;2023-08-08T08:10:08;24.60;48.70
29539;DHT22;16482;51.046;4.498;2023-08-08T08:12:37;24.60;48.60
29539;DHT22;16482;51.046;4.498;2023-08-08T08:15:07;24.60;48.70
29539;DHT22;16482;51.046;4.498;2023-08-08T08:17:36;24.60;48.70
29539;DHT22;16482;51.046;4.498;2023-08-08T08:20:09;24.60;48.90
29539;DHT22;16482;51.046;4.498;2023-08-08T08:22:37;24.60;48.70
29539;DHT22;16482;51.046;4.498;2023-08-08T08:25:11;24.60;48.80
29539;DHT22;16482;51.046;4.498;2023-08-08T08:27:37;24.60;48.70
29539;DHT22;16482;51.046;4.498;2023-08-08T08:30:06;24.60;48.70
29539;DHT22;16482;51.046;4.498;2023-08-08T08:32:36;24.60;48.60
29539;DHT22;16482;51.046;4.498;2023-08-08T08:35:09;24.70;48.80
29539;DHT22;16482;51.046;4.498;2023-08-08T08:37:38;24.60;48.80
29539;DHT22;16482;51.046;4.498;2023-08-08T08:40:07;24.70;48.90
29539;DHT22;16482;51.046;4.498;2023-08-08T08:42:38;24.70;48.70
29539;DHT22;16482;51.046;4.498;2023-08-08T08:45:05;24.70;48.90
29539;DHT22;16482;51.046;4.498;2023-08-08T08:47:32;24.70;49.00
29539;DHT22;16482;51.046;4.498;2023-08-08T08:50:01;24.70;49.00
29539;DHT22;16482;51.046;4.498;2023-08-08T08:52:30;24.70;49.00
29539;DHT22;16482;51.046;4.498;2023-08-08T08:55:07;24.70;49.00
29539;DHT22;16482;51.046;4.498;2023-08-08T08:57:36;24.70;48.90
29539;DHT22;16482;51.046;4.498;2023-08-08T09:00:05;24.80;49.00
29539;DHT22;16482;51.046;4.498;2023-08-08T09:02:36;24.80;48.90
29539;DHT22;16482;51.046;4.498;2023-08-08T09:05:13;24.80;48.90
29539;DHT22;16482;51.046;4.498;2023-08-08T09:07:41;24.80;48.80
29539;DHT22;16482;51.046;4.498;2023-08-08T09:10:09;24.80;48.90
29539;DHT22;16482;51.046;4.498;2023-08-08T09:12:35;24.80;48.80
29539;DHT22;16482;51.046;4.498;2023-08-08T09:15:12;24.80;48.80
29539;DHT22;16482;51.046;4.498;2023-08-08T09:17:43;24.80;48.70
29539;DHT22;16482;51.046;4.498;2023-08-08T09:20:13;24.80;48.80
29539;DHT22;16482;51.046;4.498;2023-08-08T09:22:38;24.80;48.80
29539;DHT22;16482;51.046;4.498;2023-08-08T09:25:07;24.80;48.80
29539;DHT22;16482;51.046;4.498;2023-08-08T09:27:36;24.80;48.70
29539;DHT22;16482;51.046;4.498;2023-08-08T09:30:07;24.80;48.80
29539;DHT22;16482;51.046;4.498;2023-08-08T09:32:37;24.80;48.70
29539;DHT22;16482;51.046;4.498;2023-08-08T09:35:06;24.80;48.70
29539;DHT22;16482;51.046;4.498;2023-08-08T09:37:40;24.80;48.70
29539;DHT22;16482;51.046;4.498;2023-08-08T09:40:16;24.80;48.50
29539;DHT22;16482;51.046;4.498;2023-08-08T09:42:52;24.80;48.70
29539;DHT22;16482;51.046;4.498;2023-08-08T09:45:21;24.80;48.70
29539;DHT22;16482;51.046;4.498;2023-08-08T09:47:50;24.80;48.70
29539;DHT22;16482;51.046;4.498;2023-08-08T09:50:18;24.80;48.60
29539;DHT22;16482;51.046;4.498;2023-08-08T09:52:46;24.70;48.60
29539;DHT22;16482;51.046;4.498;2023-08-08T09:55:13;24.70;48.60
29539;DHT22;16482;51.046;4.498;2023-08-08T09:57:42;24.60;48.60
29539;DHT22;16482;51.046;4.498;2023-08-08T10:00:17;24.70;48.70
29539;DHT22;16482;51.046;4.498;2023-08-08T10:02:47;24.60;48.60
29539;DHT22;16482;51.046;4.498;2023-08-08T10:05:14;24.70;48.60
29539;DHT22;16482;51.046;4.498;2023-08-08T10:07:41;24.70;48.60
29539;DHT22;16482;51.046;4.498;2023-08-08T10:10:11;24.70;48.50
29539;DHT22;16482;51.046;4.498;2023-08-08T10:12:41;24.70;48.50
29539;DHT22;16482;51.046;4.498;2023-08-08T10:15:13;24.70;48.50
29539;DHT22;16482;51.046;4.498;2023-08-08T10:17:39;24.70;48.40
29539;DHT22;16482;51.046;4.498;2023-08-08T10:20:09;24.70;48.40
29539;DHT22;16482;51.046;4.498;2023-08-08T10:22:44;24.60;48.40
29539;DHT22;16482;51.046;4.498;2023-08-08T10:25:24;24.70;48.30
29539;DHT22;16482;51.046;4.498;2023-08-08T10:28:09;24.70;48.30
29539;DHT22;16482;51.046;4.498;2023-08-08T10:30:52;24.70;48.20
29539;DHT22;16482;51.046;4.498;2023-08-08T10:33:38;24.60;48.30
29539;DHT22;16482;51.046;4.498;2023-08-08T10:36:06;24.70;48.30
29539;DHT22;16482;51.046;4.498;2023-08-08T10:38:48;24.60;48.10
29539;DHT22;16482;51.046;4.498;2023-08-08T10:41:20;24.70;48.20
29539;DHT22;16482;51.046;4.498;2023-08-08T10:46:27;24.70;48.10
29539;DHT22;16482;51.046;4.498;2023-08-08T10:48:56;24.70;48.00
29539;DHT22;16482;51.046;4.498;2023-08-08T10:51:33;24.60;48.00
29539;DHT22;16482;51.046;4.498;2023-08-08T10:54:05;24.60;47.90
29539;DHT22;16482;51.046;4.498;2023-08-08T10:56:31;24.70;47.80
29539;DHT22;16482;51.046;4.498;2023-08-08T10:59:00;24.70;47.90
29539;DHT22;16482;51.046;4.498;2023-08-08T11:01:49;24.70;47.80
29539;DHT22;16482;51.046;4.498;2023-08-08T11:04:25;24.70;47.70
29539;DHT22;16482;51.046;4.498;2023-08-08T11:06:55;24.70;47.70
29539;DHT22;16482;51.046;4.498;2023-08-08T11:09:22;24.70;47.70
29539;DHT22;16482;51.046;4.498;2023-08-08T11:11:48;24.70;47.60
29539;DHT22;16482;51.046;4.498;2023-08-08T11:14:20;24.70;47.40
29539;DHT22;16482;51.046;4.498;2023-08-08T11:16:50;24.60;47.40
29539;DHT22;16482;51.046;4.498;2023-08-08T11:19:17;24.70;47.30
29539;DHT22;16482;51.046;4.498;2023-08-08T11:21:52;24.60;47.10
29539;DHT22;16482;51.046;4.498;2023-08-08T11:24:18;24.70;47.20
29539;DHT22;16482;51.046;4.498;2023-08-08T11:26:46;24.60;47.20
29539;DHT22;16482;51.046;4.498;2023-08-08T11:29:12;24.60;47.00
29539;DHT22;16482;51.046;4.498;2023-08-08T11:31:41;24.70;46.90
29539;DHT22;16482;51.046;4.498;2023-08-08T11:34:07;24.70;46.50
29539;DHT22;16482;51.046;4.498;2023-08-08T11:36:36;24.80;46.80
29539;DHT22;16482;51.046;4.498;2023-08-08T11:39:03;24.80;46.90
29539;DHT22;16482;51.046;4.498;2023-08-08T11:41:36;24.80;46.80
29539;DHT22;16482;51.046;4.498;2023-08-08T11:44:03;24.90;47.00
29539;DHT22;16482;51.046;4.498;2023-08-08T11:46:30;24.90;47.20
29539;DHT22;16482;51.046;4.498;2023-08-08T11:49:02;24.90;47.20
29539;DHT22;16482;51.046;4.498;2023-08-08T11:51:29;24.90;47.30
29539;DHT22;16482;51.046;4.498;2023-08-08T11:53:55;24.80;47.40
29539;DHT22;16482;51.046;4.498;2023-08-08T11:56:21;24.90;47.40
29539;DHT22;16482;51.046;4.498;2023-08-08T11:58:50;24.80;47.40
29539;DHT22;16482;51.046;4.498;2023-08-08T12:01:20;24.80;47.40
29539;DHT22;16482;51.046;4.498;2023-08-08T12:03:46;24.90;47.50
29539;DHT22;16482;51.046;4.498;2023-08-08T12:06:13;24.80;47.50
29539;DHT22;16482;51.046;4.498;2023-08-08T12:08:43;24.90;47.40
29539;DHT22;16482;51.046;4.498;2023-08-08T12:11:10;24.90;47.50
29539;DHT22;16482;51.046;4.498;2023-08-08T12:13:44;24.90;47.30
29539;DHT22;16482;51.046;4.498;2023-08-08T12:16:11;24.90;47.20
29539;DHT22;16482;51.046;4.498;2023-08-08T12:18:40;24.90;47.30
29539;DHT22;16482;51.046;4.498;2023-08-08T12:21:07;24.90;47.20
29539;DHT22;16482;51.046;4.498;2023-08-08T12:23:35;25.00;47.20
29539;DHT22;16482;51.046;4.498;2023-08-08T12:26:04;24.90;47.10
29539;DHT22;16482;51.046;4.498;2023-08-08T12:28:33;25.00;47.10
29539;DHT22;16482;51.046;4.498;2023-08-08T12:31:00;25.00;47.10
29539;DHT22;16482;51.046;4.498;2023-08-08T12:33:27;25.10;47.10
29539;DHT22;16482;51.046;4.498;2023-08-08T12:35:58;25.20;47.10
29539;DHT22;16482;51.046;4.498;2023-08-08T12:38:31;25.20;47.10
29539;DHT22;16482;51.046;4.498;2023-08-08T12:41:00;25.10;46.90
29539;DHT22;16482;51.046;4.498;2023-08-08T12:43:26;25.20;47.00
29539;DHT22;16482;51.046;4.498;2023-08-08T12:45:54;25.10;46.80
29539;DHT22;16482;51.046;4.498;2023-08-08T12:48:28;25.20;46.90
29539;DHT22;16482;51.046;4.498;2023-08-08T12:51:04;25.20;46.80
29539;DHT22;16482;51.046;4.498;2023-08-08T12:53:33;25.20;46.70
29539;DHT22;16482;51.046;4.498;2023-08-08T12:55:59;25.20;46.70
29539;DHT22;16482;51.046;4.498;2023-08-08T12:58:30;25.20;46.60
29539;DHT22;16482;51.046;4.498;2023-08-08T13:00:58;25.20;46.50
29539;DHT22;16482;51.046;4.498;2023-08-08T13:03:24;25.20;46.60
29539;DHT22;16482;51.046;4.498;2023-08-08T13:06:00;25.20;46.70
29539;DHT22;16482;51.046;4.498;2023-08-08T13:08:28;25.20;46.60
29539;DHT22;16482;51.046;4.498;2023-08-08T13:10:54;25.20;46.50
29539;DHT22;16482;51.046;4.498;2023-08-08T13:13:29;25.20;46.60
29539;DHT22;16482;51.046;4.498;2023-08-08T13:15:55;25.30;47.00
29539;DHT22;16482;51.046;4.498;2023-08-08T13:18:29;25.30;46.40
29539;DHT22;16482;51.046;4.498;2023-08-08T13:20:58;25.40;46.40
29539;DHT22;16482;51.046;4.498;2023-08-08T13:23:31;25.20;46.30
29539;DHT22;16482;51.046;4.498;2023-08-08T13:26:00;25.30;46.30
29539;DHT22;16482;51.046;4.498;2023-08-08T13:28:29;25.20;46.20
29539;DHT22;16482;51.046;4.498;2023-08-08T13:31:04;25.20;46.50
29539;DHT22;16482;51.046;4.498;2023-08-08T13:33:33;25.20;46.40
29539;DHT22;16482;51.046;4.498;2023-08-08T13:36:00;25.20;46.50
29539;DHT22;16482;51.046;4.498;2023-08-08T13:38:29;25.20;46.40
29539;DHT22;16482;51.046;4.498;2023-08-08T13:40:58;25.20;46.50
29539;DHT22;16482;51.046;4.498;2023-08-08T13:43:28;25.20;46.50
29539;DHT22;16482;51.046;4.498;2023-08-08T13:46:01;25.30;46.40
29539;DHT22;16482;51.046;4.498;2023-08-08T13:48:30;25.20;46.40
29539;DHT22;16482;51.046;4.498;2023-08-08T13:50:59;25.20;46.40
29539;DHT22;16482;51.046;4.498;2023-08-08T13:53:25;25.20;46.30
29539;DHT22;16482;51.046;4.498;2023-08-08T13:55:51;25.20;46.30
29539;DHT22;16482;51.046;4.498;2023-08-08T13:58:17;25.20;46.30
29539;DHT22;16482;51.046;4.498;2023-08-08T14:00:55;25.20;46.10
29539;DHT22;16482;51.046;4.498;2023-08-08T14:03:24;25.20;46.20
29539;DHT22;16482;51.046;4.498;2023-08-08T14:05:51;25.20;46.20
29539;DHT22;16482;51.046;4.498;2023-08-08T14:08:29;25.20;46.20
29539;DHT22;16482;51.046;4.498;2023-08-08T14:11:05;25.20;46.20
29539;DHT22;16482;51.046;4.498;2023-08-08T14:13:31;25.20;46.20
29539;DHT22;16482;51.046;4.498;2023-08-08T14:16:00;25.20;46.20
29539;DHT22;16482;51.046;4.498;2023-08-08T14:18:29;25.20;46.10
29539;DHT22;16482;51.046;4.498;2023-08-08T14:21:02;25.20;46.20
29539;DHT22;16482;51.046;4.498;2023-08-08T14:23:30;25.20;46.10
29539;DHT22;16482;51.046;4.498;2023-08-08T14:25:58;25.20;46.20
29539;DHT22;16482;51.046;4.498;2023-08-08T14:28:32;25.20;46.10
29539;DHT22;16482;51.046;4.498;2023-08-08T14:31:01;25.20;46.20
29539;DHT22;16482;51.046;4.498;2023-08-08T14:33:30;25.10;46.00
29539;DHT22;16482;51.046;4.498;2023-08-08T14:35:58;25.20;46.30
29539;DHT22;16482;51.046;4.498;2023-08-08T14:38:25;25.10;46.30
29539;DHT22;16482;51.046;4.498;2023-08-08T14:40:51;25.10;46.00
29539;DHT22;16482;51.046;4.498;2023-08-08T14:43:18;25.20;46.30
29539;DHT22;16482;51.046;4.498;2023-08-08T14:45:56;25.10;46.20
29539;DHT22;16482;51.046;4.498;2023-08-08T14:48:22;25.10;46.30
29539;DHT22;16482;51.046;4.498;2023-08-08T14:50:51;25.10;46.40
29539;DHT22;16482;51.046;4.498;2023-08-08T14:53:17;25.10;46.30
29539;DHT22;16482;51.046;4.498;2023-08-08T14:55:43;25.10;46.30
29539;DHT22;16482;51.046;4.498;2023-08-08T14:58:09;25.10;46.30
29539;DHT22;16482;51.046;4.498;2023-08-08T15:00:35;25.10;46.20
29539;DHT22;16482;51.046;4.498;2023-08-08T15:03:01;25.10;46.20
29539;DHT22;16482;51.046;4.498;2023-08-08T15:05:27;25.10;46.20
29539;DHT22;16482;51.046;4.498;2023-08-08T15:07:53;25.20;46.30
29539;DHT22;16482;51.046;4.498;2023-08-08T15:10:19;25.10;46.20
29539;DHT22;16482;51.046;4.498;2023-08-08T15:12:48;25.20;46.00
29539;DHT22;16482;51.046;4.498;2023-08-08T15:15:23;25.10;45.70
29539;DHT22;16482;51.046;4.498;2023-08-08T15:17:51;25.00;45.50
29539;DHT22;16482;51.046;4.498;2023-08-08T15:20:19;25.10;45.20
29539;DHT22;16482;51.046;4.498;2023-08-08T15:22:45;25.00;45.10
29539;DHT22;16482;51.046;4.498;2023-08-08T15:25:11;25.00;45.00
29539;DHT22;16482;51.046;4.498;2023-08-08T15:27:40;25.10;45.00
29539;DHT22;16482;51.046;4.498;2023-08-08T15:30:09;25.00;44.90
29539;DHT22;16482;51.046;4.498;2023-08-08T15:32:38;25.10;45.10
29539;DHT22;16482;51.046;4.498;2023-08-08T15:35:15;25.10;45.10
29539;DHT22;16482;51.046;4.498;2023-08-08T15:37:42;25.10;45.10
29539;DHT22;16482;51.046;4.498;2023-08-08T15:40:11;25.00;45.20
29539;DHT22;16482;51.046;4.498;2023-08-08T15:42:39;25.00;45.40
29539;DHT22;16482;51.046;4.498;2023-08-08T15:45:13;25.00;45.40
29539;DHT22;16482;51.046;4.498;2023-08-08T15:47:41;25.00;45.40